createdAt,value
2023-04-28T00:00:36.708Z,73.30
2023-04-28T00:01:38.589Z,73.63
2023-04-28T00:02:40.530Z,73.37
2023-04-28T00:03:42.754Z,73.43
2023-04-28T00:04:44.954Z,73.30
2023-04-28T00:05:47.995Z,73.69
2023-04-28T00:06:49.924Z,72.79
2023-04-28T00:07:51.888Z,74.00
2023-04-28T00:08:53.914Z,73.62
2023-04-28T00:09:57.226Z,73.78
2023-04-28T00:10:59.240Z,74.15
2023-04-28T00:12:02.040Z,74.47
2023-04-28T00:13:03.938Z,76.47
2023-04-28T00:14:06.395Z,75.20
2023-04-28T00:15:08.520Z,75.48
2023-04-28T00:16:10.431Z,75.29
2023-04-28T00:17:12.358Z,74.36
2023-04-28T00:18:14.283Z,74.77
2023-04-28T00:19:16.306Z,74.35
2023-04-28T00:20:18.353Z,74.19
2023-04-28T00:21:20.381Z,73.65
2023-04-28T00:22:22.414Z,74.24
2023-04-28T00:23:24.369Z,74.64
2023-04-28T00:24:26.303Z,74.75
2023-04-28T00:25:28.166Z,74.14
2023-04-28T00:26:30.017Z,75.86
2023-04-28T00:27:33.228Z,76.52
2023-04-28T00:28:35.272Z,78.46
2023-04-28T00:29:37.436Z,79.40
2023-04-28T00:30:39.391Z,79.76
2023-04-28T00:31:41.329Z,79.84
2023-04-28T00:32:43.255Z,79.68
2023-04-28T00:33:45.585Z,78.36
2023-04-28T00:34:47.497Z,76.94
2023-04-28T00:35:49.400Z,77.04
2023-04-28T00:36:51.321Z,75.67
2023-04-28T00:37:53.190Z,76.36
2023-04-28T00:38:55.068Z,76.33
2023-04-28T00:39:57.285Z,75.01
2023-04-28T00:40:59.172Z,75.09
2023-04-28T00:42:02.396Z,75.47
2023-04-28T00:43:04.917Z,74.91
2023-04-28T00:44:06.936Z,74.73
2023-04-28T00:45:09.123Z,75.70
2023-04-28T00:46:11.524Z,75.09
2023-04-28T00:47:13.896Z,75.38
2023-04-28T00:48:16.004Z,75.32
2023-04-28T00:49:17.899Z,75.22
2023-04-28T00:50:19.839Z,74.82
2023-04-28T00:51:21.919Z,74.57
2023-04-28T00:52:23.851Z,74.47
2023-04-28T00:53:25.848Z,74.41
2023-04-28T00:54:27.856Z,74.16
2023-04-28T00:55:32.201Z,73.92
2023-04-28T00:56:34.236Z,73.78
2023-04-28T00:57:36.562Z,74.02
2023-04-28T00:58:38.538Z,73.34
2023-04-28T00:59:40.530Z,73.78
2023-04-28T01:00:42.638Z,73.97
2023-04-28T01:01:44.627Z,74.27
2023-04-28T01:02:47.139Z,73.84
2023-04-28T01:03:49.358Z,73.96
2023-04-28T01:04:52.967Z,75.73
2023-04-28T01:05:54.971Z,75.30
2023-04-28T01:06:57.385Z,74.98
2023-04-28T01:07:59.342Z,77.09
2023-04-28T01:09:01.238Z,76.83
2023-04-28T01:10:03.417Z,76.19
2023-04-28T01:11:05.576Z,75.59
2023-04-28T01:12:07.562Z,76.13
2023-04-28T01:13:09.459Z,75.47
2023-04-28T01:14:11.325Z,75.86
2023-04-28T01:15:16.438Z,76.24
2023-04-28T01:16:18.462Z,76.08
2023-04-28T01:17:20.388Z,76.06
2023-04-28T01:18:23.155Z,75.99
2023-04-28T01:19:25.139Z,75.55
2023-04-28T01:20:27.050Z,75.82
2023-04-28T01:21:30.666Z,75.09
2023-04-28T01:22:32.638Z,76.78
2023-04-28T01:23:34.516Z,76.79
2023-04-28T01:24:36.534Z,76.55
2023-04-28T01:25:38.424Z,75.59
2023-04-28T01:26:40.461Z,76.11
2023-04-28T01:27:42.365Z,75.39
2023-04-28T01:28:44.290Z,75.73
2023-04-28T01:29:46.334Z,75.42
2023-04-28T01:30:48.222Z,76.10
2023-04-28T01:31:50.157Z,75.77
2023-04-28T01:32:52.169Z,76.08
2023-04-28T01:33:54.036Z,76.54
2023-04-28T01:34:55.918Z,76.11
2023-04-28T01:35:59.211Z,75.92
2023-04-28T01:37:01.505Z,76.04
2023-04-28T01:38:03.523Z,76.69
2023-04-28T01:39:05.742Z,76.26
2023-04-28T01:40:08.424Z,76.51
2023-04-28T01:41:10.317Z,76.19
2023-04-28T01:42:12.167Z,76.36
2023-04-28T01:43:14.125Z,75.84
2023-04-28T01:44:16.429Z,75.60
2023-04-28T01:45:18.298Z,75.48
2023-04-28T01:46:20.265Z,76.34
2023-04-28T01:47:22.233Z,75.94
2023-04-28T01:48:24.692Z,76.37
2023-04-28T01:49:26.554Z,75.80
2023-04-28T01:50:28.396Z,75.42
2023-04-28T01:51:30.317Z,76.23
2023-04-28T01:52:32.335Z,75.31
2023-04-28T01:53:34.437Z,75.27
2023-04-28T01:54:36.333Z,76.00
2023-04-28T01:55:38.566Z,75.74
2023-04-28T01:56:40.416Z,75.98
2023-04-28T01:57:42.540Z,76.38
2023-04-28T01:58:44.529Z,76.27
2023-04-28T01:59:46.460Z,76.52
2023-04-28T02:00:48.411Z,75.66
2023-04-28T02:01:50.333Z,76.57
2023-04-28T02:02:52.328Z,76.88
2023-04-28T02:03:55.762Z,76.85
2023-04-28T02:04:58.582Z,75.84
2023-04-28T02:06:00.633Z,76.15
2023-04-28T02:07:02.497Z,76.82
2023-04-28T02:08:04.530Z,77.15
2023-04-28T02:09:06.658Z,77.45
2023-04-28T02:10:08.952Z,77.22
2023-04-28T02:11:10.945Z,76.63
2023-04-28T02:12:12.880Z,75.89
2023-04-28T02:13:14.828Z,76.54
2023-04-28T02:14:17.071Z,77.22
2023-04-28T02:15:19.892Z,77.78
2023-04-28T02:16:21.842Z,77.31
2023-04-28T02:17:23.738Z,76.89
2023-04-28T02:18:25.577Z,76.42
2023-04-28T02:19:27.509Z,77.24
2023-04-28T02:20:30.785Z,77.76
2023-04-28T02:21:34.599Z,77.74
2023-04-28T02:22:36.763Z,77.89
2023-04-28T02:23:39.140Z,78.08
2023-04-28T02:24:40.965Z,77.63
2023-04-28T02:25:42.992Z,77.25
2023-04-28T02:26:44.913Z,76.84
2023-04-28T02:27:46.810Z,75.98
2023-04-28T02:28:49.425Z,76.53
2023-04-28T02:29:52.094Z,76.22
2023-04-28T02:30:53.987Z,76.69
2023-04-28T02:31:56.050Z,77.81
2023-04-28T02:32:57.949Z,77.60
2023-04-28T02:33:59.814Z,77.54
2023-04-28T02:35:01.712Z,77.37
2023-04-28T02:36:04.699Z,77.57
2023-04-28T02:37:06.705Z,77.44
2023-04-28T02:38:08.652Z,77.43
2023-04-28T02:39:11.035Z,76.83
2023-04-28T02:40:13.165Z,76.47
2023-04-28T02:41:15.705Z,78.17
2023-04-28T02:42:17.787Z,79.73
2023-04-28T02:43:19.795Z,79.08
2023-04-28T02:44:21.780Z,79.15
2023-04-28T02:45:23.719Z,79.09
2023-04-28T02:46:25.826Z,77.94
2023-04-28T02:47:27.854Z,78.36
2023-04-28T02:48:29.814Z,78.46
2023-04-28T02:49:31.957Z,78.30
2023-04-28T02:50:33.905Z,78.12
2023-04-28T02:51:35.974Z,77.17
2023-04-28T02:52:38.409Z,77.61
2023-04-28T02:53:40.273Z,76.39
2023-04-28T02:54:42.309Z,77.45
2023-04-28T02:55:44.258Z,77.77
2023-04-28T02:56:46.165Z,77.45
2023-04-28T02:57:48.110Z,77.26
2023-04-28T02:58:49.936Z,76.88
2023-04-28T02:59:51.842Z,76.93
2023-04-28T03:00:53.783Z,76.46
2023-04-28T03:01:55.802Z,76.79
2023-04-28T03:02:57.796Z,77.62
2023-04-28T03:04:00.654Z,77.15
2023-04-28T03:05:02.694Z,77.27
2023-04-28T03:06:04.773Z,77.61
2023-04-28T03:07:06.815Z,77.71
2023-04-28T03:08:08.746Z,77.17
2023-04-28T03:09:11.338Z,77.62
2023-04-28T03:10:13.259Z,76.99
2023-04-28T03:11:15.144Z,76.98
2023-04-28T03:12:17.025Z,77.22
2023-04-28T03:13:18.942Z,76.85
2023-04-28T03:14:20.895Z,76.95
2023-04-28T03:15:22.833Z,77.01
2023-04-28T03:16:24.733Z,76.94
2023-04-28T03:17:26.677Z,76.95
2023-04-28T03:18:28.727Z,77.81
2023-04-28T03:19:30.642Z,76.93
2023-04-28T03:20:32.500Z,78.43
2023-04-28T03:21:34.437Z,78.83
2023-04-28T03:22:36.714Z,78.18
2023-04-28T03:23:38.637Z,78.06
2023-04-28T03:24:40.556Z,78.01
2023-04-28T03:25:42.443Z,77.70
2023-04-28T03:26:44.510Z,77.20
2023-04-28T03:27:46.447Z,77.59
2023-04-28T03:28:48.450Z,76.66
2023-04-28T03:29:50.389Z,77.25
2023-04-28T03:30:52.369Z,77.58
2023-04-28T03:31:54.243Z,78.40
2023-04-28T03:32:56.303Z,79.14
2023-04-28T03:33:59.891Z,79.17
2023-04-28T03:35:01.984Z,78.24
2023-04-28T03:36:04.183Z,79.57
2023-04-28T03:37:06.127Z,78.57
2023-04-28T03:38:08.034Z,77.87
2023-04-28T03:39:10.616Z,78.04
2023-04-28T03:40:12.847Z,78.54
2023-04-28T03:41:14.901Z,78.34
2023-04-28T03:42:17.018Z,78.50
2023-04-28T03:43:18.886Z,78.34
2023-04-28T03:44:21.929Z,77.74
2023-04-28T03:45:23.950Z,78.22
2023-04-28T03:46:25.953Z,77.18
2023-04-28T03:47:28.616Z,76.97
2023-04-28T03:48:30.623Z,77.43
2023-04-28T03:49:32.614Z,78.08
2023-04-28T03:50:34.591Z,78.83
2023-04-28T03:51:36.530Z,78.76
2023-04-28T03:52:39.092Z,78.54
2023-04-28T03:53:40.970Z,79.00
2023-04-28T03:54:42.918Z,78.97
2023-04-28T03:55:44.930Z,78.54
2023-04-28T03:56:47.016Z,78.58
2023-04-28T03:57:48.950Z,78.18
2023-04-28T03:58:50.786Z,78.41
2023-04-28T03:59:52.721Z,78.49
2023-04-28T04:00:54.701Z,78.71
2023-04-28T04:01:56.797Z,78.83
2023-04-28T04:03:03.385Z,78.75
2023-04-28T04:04:05.976Z,78.00
2023-04-28T04:05:08.393Z,77.92
2023-04-28T04:06:10.614Z,77.27
2023-04-28T04:07:12.632Z,78.36
2023-04-28T04:08:15.062Z,77.88
2023-04-28T04:09:17.106Z,78.92
2023-04-28T04:10:19.091Z,79.06
2023-04-28T04:11:21.263Z,79.12
2023-04-28T04:12:23.190Z,78.93
2023-04-28T04:13:25.051Z,79.17
2023-04-28T04:14:27.006Z,78.91
2023-04-28T04:15:29.059Z,78.09
2023-04-28T04:16:31.117Z,78.53
2023-04-28T04:17:33.217Z,77.55
2023-04-28T04:18:35.254Z,78.11
2023-04-28T04:19:37.057Z,79.05
2023-04-28T04:20:38.935Z,78.63
2023-04-28T04:21:41.585Z,77.69
2023-04-28T04:22:43.529Z,78.43
2023-04-28T04:23:45.451Z,77.89
2023-04-28T04:24:47.303Z,80.26
2023-04-28T04:25:49.834Z,80.38
2023-04-28T04:26:51.750Z,79.07
2023-04-28T04:27:53.640Z,78.35
2023-04-28T04:28:55.525Z,78.23
2023-04-28T04:29:57.501Z,78.11
2023-04-28T04:30:59.624Z,78.66
2023-04-28T04:32:01.610Z,80.13
2023-04-28T04:33:03.564Z,80.25
2023-04-28T04:34:05.548Z,80.89
2023-04-28T04:35:07.661Z,81.03
2023-04-28T04:36:09.584Z,81.07
2023-04-28T04:37:11.471Z,79.97
2023-04-28T04:38:13.571Z,80.71
2023-04-28T04:39:15.995Z,80.28
2023-04-28T04:40:17.926Z,81.24
2023-04-28T04:41:23.056Z,81.38
2023-04-28T04:42:26.002Z,81.89
2023-04-28T04:43:28.301Z,82.27
2023-04-28T04:44:30.132Z,81.55
2023-04-28T04:45:32.184Z,81.71
2023-04-28T04:46:34.151Z,80.59
2023-04-28T04:47:36.208Z,80.62
2023-04-28T04:48:38.144Z,80.16
2023-04-28T04:49:40.028Z,80.84
2023-04-28T04:50:42.926Z,80.96
2023-04-28T04:51:44.889Z,80.76
2023-04-28T04:52:46.885Z,82.35
2023-04-28T04:53:48.969Z,82.00
2023-04-28T04:54:50.903Z,81.74
2023-04-28T04:55:52.853Z,81.70
2023-04-28T04:56:54.801Z,82.57
2023-04-28T04:57:56.825Z,82.31
2023-04-28T04:58:58.707Z,81.91
2023-04-28T05:00:00.635Z,82.22
2023-04-28T05:01:02.741Z,81.47
2023-04-28T05:02:04.670Z,82.14
2023-04-28T05:03:06.829Z,82.85
2023-04-28T05:04:09.159Z,82.69
2023-04-28T05:05:20.527Z,83.29
2023-04-28T05:06:23.691Z,82.52
2023-04-28T05:07:26.729Z,83.43
2023-04-28T05:08:28.954Z,83.21
2023-04-28T05:09:32.316Z,83.70
2023-04-28T05:10:34.247Z,82.68
2023-04-28T05:11:36.218Z,82.92
2023-04-28T05:12:39.306Z,83.54
2023-04-28T05:13:41.206Z,85.40
2023-04-28T05:14:43.222Z,85.68
2023-04-28T05:15:45.145Z,85.82
2023-04-28T05:16:47.070Z,86.54
2023-04-28T05:17:49.044Z,86.55
2023-04-28T05:18:51.362Z,86.29
2023-04-28T05:19:53.316Z,86.56
2023-04-28T05:20:55.276Z,85.84
2023-04-28T05:21:57.266Z,86.22
2023-04-28T05:22:59.194Z,86.43
2023-04-28T05:24:02.629Z,85.68
2023-04-28T05:25:04.825Z,86.20
2023-04-28T05:26:06.858Z,85.72
2023-04-28T05:27:08.768Z,86.88
2023-04-28T05:28:10.832Z,86.45
2023-04-28T05:29:12.773Z,85.96
2023-04-28T05:30:16.011Z,86.21
2023-04-28T05:31:17.994Z,87.06
2023-04-28T05:32:19.960Z,86.97
2023-04-28T05:33:22.717Z,86.34
2023-04-28T05:34:24.811Z,86.72
2023-04-28T05:35:26.884Z,85.34
2023-04-28T05:36:28.920Z,85.17
2023-04-28T05:37:30.843Z,86.10
2023-04-28T05:38:34.108Z,85.45
2023-04-28T05:39:35.984Z,85.15
2023-04-28T05:40:37.924Z,85.64
2023-04-28T05:41:39.862Z,85.69
2023-04-28T05:42:41.837Z,86.02
2023-04-28T05:43:43.797Z,85.08
2023-04-28T05:44:46.023Z,85.65
2023-04-28T05:45:47.951Z,85.00
2023-04-28T05:46:50.010Z,85.77
2023-04-28T05:47:52.091Z,85.47
2023-04-28T05:48:54.234Z,84.94
2023-04-28T05:49:56.087Z,85.33
2023-04-28T05:50:57.988Z,85.06
2023-04-28T05:51:59.931Z,84.94
2023-04-28T05:53:01.875Z,84.61
2023-04-28T05:54:03.859Z,83.87
2023-04-28T05:55:05.997Z,83.85
2023-04-28T05:56:08.242Z,83.88
2023-04-28T05:57:10.204Z,83.56
2023-04-28T05:58:12.168Z,83.52
2023-04-28T05:59:14.193Z,83.36
2023-04-28T06:00:16.331Z,83.22
2023-04-28T06:01:18.677Z,83.08
2023-04-28T06:02:22.697Z,83.14
2023-04-28T06:03:25.453Z,83.15
2023-04-28T06:04:27.771Z,82.75
2023-04-28T06:05:30.491Z,83.11
2023-04-28T06:06:34.406Z,83.46
2023-04-28T06:07:36.409Z,83.04
2023-04-28T06:08:38.942Z,82.47
2023-04-28T06:09:40.850Z,82.33
2023-04-28T06:10:42.671Z,82.47
2023-04-28T06:11:44.652Z,81.79
2023-04-28T06:12:46.551Z,81.72
2023-04-28T06:13:49.387Z,82.15
2023-04-28T06:14:53.250Z,81.42
2023-04-28T06:15:55.424Z,81.22
2023-04-28T06:16:57.477Z,80.80
2023-04-28T06:17:59.661Z,80.71
2023-04-28T06:19:02.053Z,80.27
2023-04-28T06:20:04.202Z,80.04
2023-04-28T06:21:06.193Z,79.89
2023-04-28T06:22:08.126Z,80.52
2023-04-28T06:23:10.135Z,79.91
2023-04-28T06:24:12.015Z,79.80
2023-04-28T06:25:13.928Z,79.73
2023-04-28T06:26:18.110Z,79.36
2023-04-28T06:27:20.325Z,79.32
2023-04-28T06:28:22.380Z,78.97
2023-04-28T06:29:24.425Z,79.18
2023-04-28T06:30:26.353Z,79.08
2023-04-28T06:31:28.360Z,78.49
2023-04-28T06:32:30.280Z,78.17
2023-04-28T06:33:32.208Z,78.62
2023-04-28T06:34:34.782Z,78.61
2023-04-28T06:35:39.091Z,78.27
2023-04-28T06:36:40.957Z,78.06
2023-04-28T06:37:42.966Z,77.95
2023-04-28T06:38:45.502Z,77.98
2023-04-28T06:39:47.383Z,77.97
2023-04-28T06:40:49.242Z,78.38
2023-04-28T06:41:51.094Z,78.09
2023-04-28T06:42:52.943Z,77.23
2023-04-28T06:43:54.856Z,76.78
2023-04-28T06:44:56.789Z,76.27
2023-04-28T06:45:58.607Z,75.16
2023-04-28T06:47:00.466Z,74.93
2023-04-28T06:48:02.730Z,74.71
2023-04-28T06:49:04.669Z,75.21
2023-04-28T06:50:07.001Z,74.73
2023-04-28T06:51:09.001Z,74.39
2023-04-28T06:52:10.951Z,74.50
2023-04-28T06:53:12.837Z,73.33
2023-04-28T06:54:14.963Z,73.47
2023-04-28T06:55:17.768Z,74.13
2023-04-28T06:56:20.181Z,74.39
2023-04-28T06:57:22.135Z,73.68
2023-04-28T06:58:24.156Z,72.68
2023-04-28T06:59:25.989Z,73.01
2023-04-28T07:00:28.037Z,72.97
2023-04-28T07:01:30.103Z,72.69
2023-04-28T07:02:32.537Z,72.72
2023-04-28T07:03:34.905Z,72.58
2023-04-28T07:04:37.344Z,72.86
2023-04-28T07:05:39.309Z,72.88
2023-04-28T07:06:41.306Z,72.92
2023-04-28T07:07:43.233Z,72.96
2023-04-28T07:08:45.095Z,72.97
2023-04-28T07:09:47.019Z,73.03
2023-04-28T07:10:48.977Z,73.08
2023-04-28T07:11:50.880Z,73.63
2023-04-28T07:12:52.840Z,73.37
2023-04-28T07:13:54.672Z,73.34
2023-04-28T07:14:56.616Z,72.86
2023-04-28T07:15:58.673Z,72.50
2023-04-28T07:17:00.590Z,72.47
2023-04-28T07:18:02.607Z,72.23
2023-04-28T07:19:04.585Z,72.62
2023-04-28T07:20:07.353Z,72.52
2023-04-28T07:21:09.468Z,72.48
2023-04-28T07:22:11.379Z,72.31
2023-04-28T07:23:13.359Z,72.38
2023-04-28T07:24:15.498Z,71.99
2023-04-28T07:25:17.791Z,72.01
2023-04-28T07:26:19.751Z,71.93
2023-04-28T07:27:21.754Z,72.38
2023-04-28T07:28:23.692Z,72.21
2023-04-28T07:29:25.759Z,72.32
2023-04-28T07:30:28.414Z,72.15
2023-04-28T07:31:30.432Z,72.19
2023-04-28T07:32:32.296Z,72.14
2023-04-28T07:33:34.268Z,72.20
2023-04-28T07:34:37.303Z,71.97
2023-04-28T07:35:39.180Z,71.78
2023-04-28T07:36:41.628Z,72.28
2023-04-28T07:37:43.713Z,71.92
2023-04-28T07:38:45.683Z,71.61
2023-04-28T07:39:47.674Z,71.78
2023-04-28T07:41:51.681Z,71.60
2023-04-28T07:42:53.538Z,71.35
2023-04-28T07:43:55.461Z,70.96
2023-04-28T07:44:59.057Z,71.20
2023-04-28T07:46:00.928Z,70.97
2023-04-28T07:47:03.261Z,71.15
2023-04-28T07:48:05.270Z,70.93
2023-04-28T07:49:08.681Z,70.84
2023-04-28T07:50:12.199Z,70.50
2023-04-28T07:51:14.062Z,70.74
2023-04-28T07:52:16.586Z,70.83
2023-04-28T07:53:18.480Z,70.77
2023-04-28T07:54:20.609Z,70.64
2023-04-28T07:55:22.619Z,70.90
2023-04-28T07:56:24.826Z,71.07
2023-04-28T07:57:26.864Z,70.65
2023-04-28T07:58:28.757Z,71.14
2023-04-28T07:59:31.043Z,71.56
2023-04-28T08:00:32.952Z,71.54
2023-04-28T08:01:34.931Z,71.01
2023-04-28T08:02:37.048Z,71.31
2023-04-28T08:03:39.301Z,70.71
2023-04-28T08:04:41.780Z,69.97
2023-04-28T08:05:45.466Z,70.00
2023-04-28T08:06:47.522Z,69.93
2023-04-28T08:07:49.505Z,69.76
2023-04-28T08:08:51.349Z,69.13
2023-04-28T08:09:53.860Z,69.76
2023-04-28T08:10:55.851Z,69.82
2023-04-28T08:11:59.321Z,70.49
2023-04-28T08:13:01.164Z,70.20
2023-04-28T08:14:03.667Z,70.80
2023-04-28T08:15:06.037Z,70.34
2023-04-28T08:16:08.019Z,70.49
2023-04-28T08:17:10.327Z,70.66
2023-04-28T08:18:12.321Z,70.25
2023-04-28T08:19:14.293Z,70.01
2023-04-28T08:20:16.309Z,70.37
2023-04-28T08:21:18.347Z,69.59
2023-04-28T08:22:20.231Z,69.63
2023-04-28T08:23:22.225Z,69.50
2023-04-28T08:24:24.101Z,69.50
2023-04-28T08:25:26.461Z,69.39
2023-04-28T08:26:28.423Z,69.55
2023-04-28T08:27:31.372Z,69.28
2023-04-28T08:28:34.305Z,69.33
2023-04-28T08:29:36.259Z,68.79
2023-04-28T08:30:39.120Z,68.73
2023-04-28T08:31:41.064Z,69.19
2023-04-28T08:32:43.127Z,69.03
2023-04-28T08:33:48.802Z,68.91
2023-04-28T08:34:50.802Z,69.20
2023-04-28T08:35:52.802Z,69.29
2023-04-28T08:36:54.762Z,69.24
2023-04-28T08:37:56.761Z,69.60
2023-04-28T08:39:03.604Z,69.07
2023-04-28T08:40:10.226Z,69.64
2023-04-28T08:41:19.704Z,69.56
2023-04-28T08:42:21.624Z,69.56
2023-04-28T08:43:24.574Z,69.56
2023-04-28T08:44:26.546Z,69.36
2023-04-28T08:45:30.528Z,69.39
2023-04-28T08:46:33.624Z,68.96
2023-04-28T08:47:36.736Z,68.49
2023-04-28T08:48:43.687Z,69.13
2023-04-28T08:49:46.215Z,68.61
2023-04-28T08:50:55.147Z,69.35
2023-04-28T08:51:59.578Z,69.46
2023-04-28T08:53:04.798Z,69.00
2023-04-28T08:55:13.411Z,69.26
2023-04-28T08:56:17.088Z,69.42
2023-04-28T08:57:20.463Z,69.12
2023-04-28T08:58:23.219Z,69.10
2023-04-28T08:59:25.336Z,69.36
2023-04-28T09:00:27.254Z,69.08
2023-04-28T09:01:29.085Z,69.61
2023-04-28T09:02:31.168Z,69.22
2023-04-28T09:03:33.722Z,69.03
2023-04-28T09:04:36.015Z,69.41
2023-04-28T09:05:38.126Z,69.33
2023-04-28T09:06:40.278Z,69.22
2023-04-28T09:07:45.807Z,68.90
2023-04-28T09:08:47.691Z,68.81
2023-04-28T09:09:49.638Z,69.47
2023-04-28T09:11:10.566Z,69.22
2023-04-28T09:12:12.526Z,69.39
2023-04-28T09:13:26.717Z,68.79
2023-04-28T09:14:29.674Z,68.75
2023-04-28T09:15:36.450Z,68.51
2023-04-28T09:16:42.085Z,68.11
2023-04-28T09:17:50.501Z,68.30
2023-04-28T09:18:58.571Z,68.85
2023-04-28T09:20:00.686Z,68.44
2023-04-28T09:21:10.110Z,68.34
2023-04-28T09:22:25.399Z,68.22
2023-04-28T09:23:28.989Z,67.94
2023-04-28T09:24:32.010Z,68.34
2023-04-28T09:25:34.423Z,68.33
2023-04-28T09:26:51.741Z,67.34
2023-04-28T09:27:54.336Z,67.93
2023-04-28T09:29:11.909Z,67.72
2023-04-28T09:30:13.853Z,67.21
2023-04-28T09:31:31.018Z,67.21
2023-04-28T09:32:33.379Z,67.28
2023-04-28T09:33:35.415Z,67.56
2023-04-28T09:34:50.156Z,67.12
2023-04-28T09:35:53.002Z,66.94
2023-04-28T09:36:54.865Z,66.44
2023-04-28T09:37:59.468Z,66.70
2023-04-28T09:39:01.588Z,65.91
2023-04-28T09:40:13.154Z,65.15
2023-04-28T09:41:15.102Z,64.97
2023-04-28T09:42:36.587Z,65.45
2023-04-28T09:43:38.578Z,64.79
2023-04-28T09:44:42.992Z,65.66
2023-04-28T09:45:46.097Z,66.33
2023-04-28T09:46:48.419Z,66.03
2023-04-28T09:47:50.523Z,66.91
2023-04-28T09:49:01.060Z,66.17
2023-04-28T09:50:04.296Z,65.98
2023-04-28T09:51:08.112Z,66.46
2023-04-28T09:52:13.734Z,65.78
2023-04-28T09:53:17.579Z,66.03
2023-04-28T09:54:21.831Z,65.50
2023-04-28T09:55:24.671Z,64.45
2023-04-28T09:56:29.070Z,64.25
2023-04-28T09:57:33.027Z,64.78
2023-04-28T09:58:35.625Z,64.48
2023-04-28T09:59:37.820Z,64.02
2023-04-28T10:00:40.809Z,64.19
2023-04-28T10:01:43.934Z,64.05
2023-04-28T10:02:46.556Z,64.69
2023-04-28T10:03:49.456Z,64.67
2023-04-28T10:04:52.727Z,64.14
2023-04-28T10:05:55.582Z,64.33
2023-04-28T10:06:57.680Z,63.82
2023-04-28T10:08:01.457Z,63.72
2023-04-28T10:09:03.969Z,63.26
2023-04-28T10:10:07.191Z,62.53
2023-04-28T10:11:10.269Z,63.19
2023-04-28T10:12:12.662Z,63.68
2023-04-28T10:13:14.659Z,63.06
2023-04-28T10:14:16.514Z,62.04
2023-04-28T10:15:18.426Z,61.65
2023-04-28T10:16:20.627Z,62.00
2023-04-28T10:17:23.091Z,61.89
2023-04-28T10:18:25.488Z,62.12
2023-04-28T10:19:27.496Z,62.67
2023-04-28T10:20:29.866Z,62.69
2023-04-28T10:21:35.372Z,61.14
2023-04-28T10:22:49.461Z,61.31
2023-04-28T10:24:06.093Z,60.21
2023-04-28T10:25:19.228Z,60.17
2023-04-28T10:26:22.144Z,60.41
2023-04-28T10:27:29.955Z,60.93
2023-04-28T10:28:31.745Z,60.71
2023-04-28T10:29:33.937Z,60.76
2023-04-28T10:30:36.484Z,61.21
2023-04-28T10:31:38.492Z,60.62
2023-04-28T10:32:41.448Z,60.96
2023-04-28T10:33:44.092Z,60.90
2023-04-28T10:34:46.154Z,61.47
2023-04-28T10:35:48.503Z,61.81
2023-04-28T10:36:53.116Z,61.68
2023-04-28T10:38:08.682Z,60.96
2023-04-28T10:39:12.564Z,61.51
2023-04-28T10:40:33.926Z,60.74
2023-04-28T10:41:35.994Z,59.98
2023-04-28T10:42:54.055Z,61.00
2023-04-28T10:43:55.889Z,60.68
2023-04-28T10:44:57.930Z,60.33
2023-04-28T10:46:02.924Z,59.52
2023-04-28T10:47:06.993Z,59.83
2023-04-28T10:48:08.858Z,60.70
2023-04-28T10:49:11.037Z,59.96
2023-04-28T10:50:13.048Z,59.72
2023-04-28T10:51:14.922Z,60.54
2023-04-28T10:52:49.354Z,59.87
2023-04-28T10:53:53.798Z,59.73
2023-04-28T10:55:22.072Z,60.01
2023-04-28T10:56:26.837Z,58.95
2023-04-28T10:57:28.775Z,59.38
2023-04-28T10:58:31.871Z,58.85
2023-04-28T10:59:33.828Z,58.97
2023-04-28T11:00:35.865Z,59.22
2023-04-28T11:01:37.750Z,59.09
2023-04-28T11:02:43.957Z,59.46
2023-04-28T11:03:51.543Z,59.20
2023-04-28T11:05:12.973Z,58.83
2023-04-28T11:06:29.861Z,59.71
2023-04-28T11:07:31.690Z,60.01
2023-04-28T11:08:33.780Z,59.46
2023-04-28T11:09:35.738Z,59.40
2023-04-28T11:10:56.017Z,59.38
2023-04-28T11:12:00.528Z,59.29
2023-04-28T11:13:21.605Z,59.71
2023-04-28T11:14:23.397Z,59.78
2023-04-28T11:15:25.854Z,59.45
2023-04-28T11:16:27.792Z,59.22
2023-04-28T11:17:40.836Z,58.36
2023-04-28T11:18:55.233Z,58.90
2023-04-28T11:19:59.491Z,59.08
2023-04-28T11:21:01.972Z,59.35
2023-04-28T11:22:12.082Z,59.41
2023-04-28T11:23:14.723Z,59.79
2023-04-28T11:24:17.662Z,59.76
2023-04-28T11:25:19.594Z,59.73
2023-04-28T11:26:21.594Z,59.33
2023-04-28T11:27:24.309Z,58.92
2023-04-28T11:28:26.250Z,59.04
2023-04-28T11:29:35.500Z,58.92
2023-04-28T11:30:37.433Z,59.29
2023-04-28T11:31:39.445Z,58.27
2023-04-28T11:32:42.246Z,58.36
2023-04-28T11:33:45.150Z,57.83
2023-04-28T11:34:52.086Z,57.77
2023-04-28T11:35:53.978Z,58.23
2023-04-28T11:36:56.421Z,58.47
2023-04-28T11:38:02.747Z,58.39
2023-04-28T11:39:07.708Z,58.82
2023-04-28T11:40:13.377Z,58.36
2023-04-28T11:41:15.422Z,58.16
2023-04-28T11:42:17.663Z,58.62
2023-04-28T11:43:36.524Z,58.92
2023-04-28T11:44:53.171Z,58.26
2023-04-28T11:45:55.088Z,58.40
2023-04-28T11:47:01.063Z,58.75
2023-04-28T11:48:20.774Z,58.70
2023-04-28T11:49:24.930Z,59.55
2023-04-28T11:50:36.401Z,59.38
2023-04-28T11:51:39.198Z,59.36
2023-04-28T11:52:52.479Z,58.68
2023-04-28T11:53:55.728Z,58.71
2023-04-28T11:54:59.514Z,59.02
2023-04-28T11:56:10.321Z,59.86
2023-04-28T11:57:19.496Z,60.41
2023-04-28T11:58:25.482Z,60.63
2023-04-28T11:59:28.994Z,60.51
2023-04-28T12:00:30.816Z,60.78
2023-04-28T12:01:33.424Z,60.63
2023-04-28T12:02:37.237Z,60.40
2023-04-28T12:03:48.877Z,60.87
2023-04-28T12:04:51.037Z,61.00
2023-04-28T12:05:53.016Z,61.04
2023-04-28T12:07:07.313Z,61.36
2023-04-28T12:08:09.258Z,61.64
2023-04-28T12:09:18.150Z,61.36
2023-04-28T12:10:20.391Z,62.15
2023-04-28T12:11:22.830Z,63.03
2023-04-28T12:12:40.012Z,62.99
2023-04-28T12:14:06.993Z,64.50
2023-04-28T12:15:10.096Z,66.31
2023-04-28T12:16:12.034Z,66.56
2023-04-28T12:17:23.516Z,66.01
2023-04-28T12:18:25.421Z,66.97
2023-04-28T12:19:27.601Z,67.83
2023-04-28T12:20:36.951Z,67.66
2023-04-28T12:21:40.210Z,68.17
2023-04-28T12:22:47.029Z,68.73
2023-04-28T12:23:48.907Z,68.86
2023-04-28T12:25:08.334Z,70.83
2023-04-28T12:26:10.817Z,73.27
2023-04-28T12:27:22.049Z,72.71
2023-04-28T12:28:24.170Z,73.64
2023-04-28T12:29:36.337Z,74.88
2023-04-28T12:30:44.244Z,75.84
2023-04-28T12:31:50.799Z,75.70
2023-04-28T12:32:54.154Z,75.55
2023-04-28T12:33:56.139Z,75.39
2023-04-28T12:34:58.300Z,75.81
2023-04-28T12:36:00.404Z,76.37
2023-04-28T12:37:06.041Z,75.50
2023-04-28T12:38:11.739Z,76.22
2023-04-28T12:39:14.284Z,76.59
2023-04-28T12:40:16.229Z,76.48
2023-04-28T12:41:18.100Z,78.18
2023-04-28T12:42:20.042Z,78.22
2023-04-28T12:43:23.683Z,78.45
2023-04-28T12:44:26.228Z,78.65
2023-04-28T12:45:28.180Z,78.68
2023-04-28T12:46:31.719Z,78.40
2023-04-28T12:47:33.877Z,78.79
2023-04-28T12:48:35.839Z,78.57
2023-04-28T12:49:38.616Z,78.46
2023-04-28T12:50:40.527Z,78.64
2023-04-28T12:51:42.480Z,78.34
2023-04-28T12:52:44.341Z,78.12
2023-04-28T12:53:46.171Z,79.17
2023-04-28T12:54:48.782Z,78.42
2023-04-28T12:55:50.660Z,77.59
2023-04-28T12:56:52.854Z,78.43
2023-04-28T12:57:55.334Z,77.84
2023-04-28T12:58:57.374Z,77.82
2023-04-28T12:59:59.213Z,78.33
2023-04-28T13:01:01.052Z,78.23
2023-04-28T13:02:03.054Z,78.59
2023-04-28T13:03:05.440Z,79.12
2023-04-28T13:04:07.904Z,79.08
2023-04-28T13:05:10.909Z,79.73
2023-04-28T13:06:12.938Z,80.63
2023-04-28T13:07:18.118Z,80.25
2023-04-28T13:08:20.554Z,79.93
2023-04-28T13:09:22.421Z,79.65
2023-04-28T13:10:24.311Z,80.11
2023-04-28T13:11:28.334Z,80.03
2023-04-28T13:12:30.176Z,79.76
2023-04-28T13:13:32.277Z,80.36
2023-04-28T13:14:34.191Z,80.89
2023-04-28T13:15:38.780Z,80.95
2023-04-28T13:16:40.923Z,81.35
2023-04-28T13:17:42.856Z,81.49
2023-04-28T13:18:44.796Z,81.70
2023-04-28T13:19:47.598Z,81.33
2023-04-28T13:20:49.960Z,81.04
2023-04-28T13:21:52.451Z,80.70
2023-04-28T13:22:54.406Z,80.58
2023-04-28T13:23:56.969Z,81.66
2023-04-28T13:24:58.797Z,82.08
2023-04-28T13:26:00.864Z,82.72
2023-04-28T13:27:04.486Z,83.12
2023-04-28T13:28:06.877Z,82.50
2023-04-28T13:29:09.767Z,82.64
2023-04-28T13:30:12.001Z,83.50
2023-04-28T13:31:14.434Z,82.96
2023-04-28T13:32:16.609Z,83.03
2023-04-28T13:33:18.514Z,85.12
2023-04-28T13:34:20.692Z,85.56
2023-04-28T13:35:22.644Z,85.32
2023-04-28T13:36:24.757Z,85.83